createdAt,value
2023-01-13T00:01:29.346Z,5.30
2023-01-13T00:03:57.464Z,3.97
2023-01-13T00:06:26.253Z,3.70
2023-01-13T00:08:54.455Z,3.80
2023-01-13T00:11:22.832Z,3.95
2023-01-13T00:13:50.127Z,5.10
2023-01-13T00:16:18.431Z,3.40
2023-01-13T00:18:46.396Z,3.70
2023-01-13T00:21:23.232Z,2.90
2023-01-13T00:23:52.560Z,2.47
2023-01-13T00:26:24.393Z,3.10
2023-01-13T00:28:55.937Z,2.40
2023-01-13T00:31:23.379Z,2.25
2023-01-13T00:33:52.166Z,2.63
2023-01-13T00:36:21.741Z,2.22
2023-01-13T00:38:49.159Z,2.17
2023-01-13T00:41:19.059Z,2.10
2023-01-13T00:43:47.219Z,2.03
2023-01-13T00:46:16.751Z,1.95
2023-01-13T00:48:44.351Z,1.60
2023-01-13T00:51:15.692Z,1.88
2023-01-13T00:53:52.532Z,2.13
2023-01-13T00:56:39.193Z,2.10
2023-01-13T00:59:10.548Z,1.85
2023-01-13T01:01:38.225Z,1.83
2023-01-13T01:04:05.805Z,1.90
2023-01-13T01:06:33.081Z,2.50
2023-01-13T01:09:00.300Z,1.80
2023-01-13T01:11:30.548Z,1.70
2023-01-13T01:13:59.337Z,1.80
2023-01-13T01:16:28.256Z,1.85
2023-01-13T01:18:56.455Z,1.95
2023-01-13T01:21:25.225Z,1.73
2023-01-13T01:23:52.744Z,1.55
2023-01-13T01:26:25.964Z,1.90
2023-01-13T01:28:54.073Z,1.98
2023-01-13T01:31:27.341Z,1.73
2023-01-13T01:33:55.878Z,1.60
2023-01-13T01:36:26.916Z,2.20
2023-01-13T01:38:57.757Z,1.70
2023-01-13T01:41:28.360Z,1.60
2023-01-13T01:44:21.914Z,1.70
2023-01-13T01:46:49.301Z,1.80
2023-01-13T01:49:33.856Z,1.85
2023-01-13T01:52:23.911Z,1.73
2023-01-13T01:55:05.335Z,1.55
2023-01-13T01:58:11.354Z,1.80
2023-01-13T02:00:38.821Z,1.73
2023-01-13T02:03:07.883Z,1.50
2023-01-13T02:05:35.117Z,1.67
2023-01-13T02:08:03.070Z,1.88
2023-01-13T02:10:32.318Z,1.55
2023-01-13T02:13:02.725Z,1.83
2023-01-13T02:15:35.944Z,1.50
2023-01-13T02:18:25.119Z,1.75
2023-01-13T02:21:24.087Z,1.52
2023-01-13T02:24:34.371Z,2.47
2023-01-13T02:27:26.094Z,2.58
2023-01-13T02:30:29.697Z,3.67
2023-01-13T02:33:22.330Z,4.10
2023-01-13T02:38:47.144Z,3.42
2023-01-13T02:41:43.167Z,4.25
2023-01-13T02:44:12.784Z,4.25
2023-01-13T02:46:45.865Z,4.05
2023-01-13T02:49:37.766Z,3.85
2023-01-13T02:52:50.895Z,3.97
2023-01-13T02:55:23.768Z,4.05
2023-01-13T02:57:53.250Z,3.97
2023-01-13T03:00:20.938Z,4.28
2023-01-13T03:02:49.399Z,4.38
2023-01-13T03:05:18.015Z,4.40
2023-01-13T03:08:00.813Z,4.50
2023-01-13T03:10:34.063Z,4.07
2023-01-13T03:13:27.551Z,4.38
2023-01-13T03:16:01.060Z,3.95
2023-01-13T03:18:37.397Z,4.18
2023-01-13T03:21:14.381Z,4.18
2023-01-13T03:23:51.823Z,5.03
2023-01-13T03:26:51.027Z,4.90
2023-01-13T03:29:18.194Z,5.25
2023-01-13T03:31:59.910Z,5.18
2023-01-13T03:34:49.386Z,5.50
2023-01-13T03:37:20.743Z,5.47
2023-01-13T03:39:54.885Z,6.43
2023-01-13T03:42:26.320Z,6.10
2023-01-13T03:45:05.210Z,6.37
2023-01-13T03:47:51.047Z,6.53
2023-01-13T03:50:20.653Z,5.78
2023-01-13T03:53:00.278Z,5.40
2023-01-13T03:55:35.818Z,5.50
2023-01-13T03:58:20.071Z,5.38
2023-01-13T04:01:05.676Z,5.20
2023-01-13T04:03:42.525Z,5.20
2023-01-13T04:06:15.351Z,4.85
2023-01-13T04:08:49.652Z,5.47
2023-01-13T04:11:33.248Z,4.50
2023-01-13T04:14:03.474Z,4.25
2023-01-13T04:16:31.445Z,3.70
2023-01-13T04:18:58.975Z,3.70
2023-01-13T04:21:26.672Z,3.83
2023-01-13T04:23:54.072Z,3.88
2023-01-13T04:26:23.520Z,4.00
2023-01-13T04:28:52.063Z,3.45
2023-01-13T04:31:19.282Z,3.85
2023-01-13T04:33:46.652Z,4.10
2023-01-13T04:36:13.963Z,5.03
2023-01-13T04:38:41.347Z,4.20
2023-01-13T04:41:08.674Z,4.20
2023-01-13T04:43:35.817Z,4.30
2023-01-13T04:46:03.142Z,4.30
2023-01-13T04:48:30.444Z,4.13
2023-01-13T04:50:57.726Z,3.65
2023-01-13T04:53:24.916Z,4.00
2023-01-13T04:55:52.554Z,3.65
2023-01-13T04:58:19.817Z,3.90
2023-01-13T05:00:47.074Z,4.20
2023-01-13T05:03:14.266Z,4.60
2023-01-13T05:05:41.579Z,4.40
2023-01-13T05:08:09.267Z,3.42
2023-01-13T05:10:36.939Z,3.78
2023-01-13T05:13:22.639Z,4.55
2023-01-13T05:16:11.106Z,4.30
2023-01-13T05:18:38.616Z,5.90
2023-01-13T05:21:25.935Z,4.40
2023-01-13T05:24:11.405Z,4.05
2023-01-13T05:26:38.671Z,3.72
2023-01-13T05:29:05.817Z,4.13
2023-01-13T05:31:33.074Z,4.15
2023-01-13T05:34:00.305Z,4.47
2023-01-13T05:36:27.541Z,4.40
2023-01-13T05:38:54.730Z,4.60
2023-01-13T05:41:40.471Z,5.45
2023-01-13T05:44:07.705Z,5.32
2023-01-13T05:46:34.944Z,4.65
2023-01-13T05:49:02.191Z,4.82
2023-01-13T05:51:29.321Z,5.00
2023-01-13T05:53:56.499Z,5.05
2023-01-13T05:56:23.785Z,5.78
2023-01-13T05:58:50.962Z,5.43
2023-01-13T06:01:18.177Z,5.40
2023-01-13T06:03:45.328Z,5.55
2023-01-13T06:06:12.610Z,5.13
2023-01-13T06:08:40.165Z,4.82
2023-01-13T06:11:07.900Z,6.03
2023-01-13T06:13:35.165Z,5.78
2023-01-13T06:16:02.691Z,5.40
2023-01-13T06:18:30.032Z,5.72
2023-01-13T06:20:57.474Z,5.43
2023-01-13T06:23:25.044Z,5.35
2023-01-13T06:26:12.321Z,5.32
2023-01-13T06:28:39.578Z,5.68
2023-01-13T06:31:12.784Z,5.57
2023-01-13T06:34:02.678Z,5.93
2023-01-13T06:36:46.556Z,6.80
2023-01-13T06:39:17.651Z,6.75
2023-01-13T06:42:06.622Z,7.07
2023-01-13T06:44:34.021Z,6.65
2023-01-13T06:47:01.229Z,6.78
2023-01-13T06:49:30.474Z,7.63
2023-01-13T06:51:57.624Z,6.82
2023-01-13T06:54:27.638Z,6.28
2023-01-13T06:56:55.060Z,7.00
2023-01-13T06:59:22.874Z,7.35
2023-01-13T07:01:50.122Z,6.57
2023-01-13T07:04:20.813Z,6.28
2023-01-13T07:06:48.074Z,6.40
2023-01-13T07:09:15.257Z,7.32
2023-01-13T07:11:42.528Z,6.68
2023-01-13T07:14:28.458Z,7.15
2023-01-13T07:16:55.769Z,6.90
2023-01-13T07:19:24.108Z,8.48
2023-01-13T07:21:52.653Z,7.40
2023-01-13T07:24:20.427Z,7.85
2023-01-13T07:26:47.677Z,8.43
2023-01-13T07:29:14.956Z,7.95
2023-01-13T07:31:42.177Z,7.45
2023-01-13T07:34:09.504Z,7.22
2023-01-13T07:36:36.696Z,7.10
2023-01-13T07:39:04.023Z,7.25
2023-01-13T07:41:50.063Z,7.80
2023-01-13T07:44:17.233Z,7.57
2023-01-13T07:46:44.481Z,7.35
2023-01-13T07:49:11.749Z,7.75
2023-01-13T07:51:39.638Z,8.43
2023-01-13T07:54:07.419Z,7.57
2023-01-13T07:56:34.739Z,9.02
2023-01-13T07:59:02.361Z,11.13
2023-01-13T08:01:29.763Z,10.60
2023-01-13T08:03:57.745Z,9.90
2023-01-13T08:06:25.875Z,10.48
2023-01-13T08:08:53.785Z,11.52
2023-01-13T08:11:23.402Z,10.20
2023-01-13T08:13:55.136Z,8.20
2023-01-13T08:16:22.428Z,9.17
2023-01-13T08:18:49.661Z,7.05
2023-01-13T08:21:17.177Z,8.82
2023-01-13T08:23:45.817Z,7.40
2023-01-13T08:26:17.828Z,6.85
2023-01-13T08:28:45.458Z,37.13
2023-01-13T08:31:16.476Z,11.73
2023-01-13T08:33:44.511Z,8.20
2023-01-13T08:36:12.931Z,7.45
2023-01-13T08:38:41.208Z,5.68
2023-01-13T08:41:10.953Z,8.35
2023-01-13T08:43:38.283Z,7.95
2023-01-13T08:46:05.681Z,7.97
2023-01-13T08:48:33.045Z,8.07
2023-01-13T08:51:05.321Z,8.75
2023-01-13T08:55:59.703Z,9.68
2023-01-13T08:58:27.911Z,10.55
2023-01-13T09:00:55.294Z,12.00
2023-01-13T09:03:22.544Z,10.55
2023-01-13T09:05:49.777Z,10.45
2023-01-13T09:08:16.943Z,11.70
2023-01-13T09:10:44.275Z,11.35
2023-01-13T09:13:13.997Z,11.90
2023-01-13T09:15:44.091Z,13.48
2023-01-13T09:18:12.346Z,11.80
2023-01-13T09:20:40.184Z,11.15
2023-01-13T09:23:10.330Z,10.30
2023-01-13T09:25:38.629Z,11.45
2023-01-13T09:28:06.272Z,9.85
2023-01-13T09:30:33.492Z,9.10
2023-01-13T09:33:19.220Z,7.93
2023-01-13T09:35:46.542Z,13.55
2023-01-13T09:38:14.011Z,7.25
2023-01-13T09:40:44.101Z,5.20
2023-01-13T09:43:56.733Z,6.03
2023-01-13T09:46:44.229Z,5.35
2023-01-13T09:49:23.088Z,4.75
2023-01-13T09:52:03.014Z,7.70
2023-01-13T09:54:59.077Z,11.13
2023-01-13T09:57:30.150Z,14.43
2023-01-13T09:59:59.116Z,12.35
2023-01-13T10:02:57.481Z,11.70
2023-01-13T10:05:44.760Z,8.25
2023-01-13T10:08:16.769Z,8.75
2023-01-13T10:10:48.497Z,11.77
2023-01-13T10:13:20.338Z,10.57
2023-01-13T10:16:00.790Z,9.25
2023-01-13T10:18:50.877Z,10.95
2023-01-13T10:21:26.783Z,8.70
2023-01-13T10:24:26.833Z,8.13
2023-01-13T10:27:13.125Z,6.55
2023-01-13T10:29:40.365Z,6.40
2023-01-13T10:32:07.535Z,4.97
2023-01-13T10:35:00.383Z,5.25
2023-01-13T10:37:29.138Z,5.43
2023-01-13T10:40:00.685Z,4.50
2023-01-13T10:42:27.982Z,4.28
2023-01-13T10:44:57.925Z,4.15
2023-01-13T10:47:29.972Z,4.03
2023-01-13T10:50:21.513Z,4.65
2023-01-13T10:53:03.541Z,4.53
2023-01-13T10:55:37.338Z,4.57
2023-01-13T10:58:19.077Z,5.13
2023-01-13T11:00:47.545Z,5.25
2023-01-13T11:03:22.071Z,6.43
2023-01-13T11:06:00.511Z,6.43
2023-01-13T11:08:31.714Z,4.97
2023-01-13T11:10:59.895Z,4.83
2023-01-13T11:13:32.598Z,5.35
2023-01-13T11:16:05.977Z,5.30
2023-01-13T11:18:40.654Z,4.75
2023-01-13T11:21:23.117Z,4.78
2023-01-13T11:24:13.731Z,5.18
2023-01-13T11:26:55.768Z,4.25
2023-01-13T11:32:13.330Z,56.70
2023-01-13T11:34:42.256Z,49.03
2023-01-13T11:37:25.177Z,3.45
2023-01-13T11:39:56.442Z,2.88
2023-01-13T11:42:36.748Z,2.97
2023-01-13T11:45:41.463Z,18.20
2023-01-13T11:48:15.615Z,2.80
2023-01-13T11:50:50.867Z,2.40
2023-01-13T11:53:52.976Z,2.50
2023-01-13T11:56:57.273Z,34.92
2023-01-13T11:59:27.542Z,33.28
2023-01-13T12:02:06.573Z,22.98
2023-01-13T12:04:57.521Z,2.55
2023-01-13T12:08:03.498Z,2.28
2023-01-13T12:11:06.985Z,2.67
2023-01-13T12:14:00.811Z,3.40
2023-01-13T12:16:30.516Z,3.35
2023-01-13T12:19:21.761Z,3.40
2023-01-13T12:22:27.973Z,2.53
2023-01-13T12:25:12.365Z,3.08
2023-01-13T12:28:02.548Z,2.42
2023-01-13T12:30:37.210Z,2.30
2023-01-13T12:33:37.674Z,6.38
2023-01-13T12:36:23.773Z,30.25
2023-01-13T12:38:59.674Z,60.50
2023-01-13T12:42:02.710Z,32.28
2023-01-13T12:44:30.392Z,59.13
2023-01-13T12:46:59.007Z,38.25
2023-01-13T12:49:34.464Z,16.05
2023-01-13T12:52:07.969Z,20.98
2023-01-13T12:54:41.104Z,5.88
2023-01-13T12:57:17.288Z,2.95
2023-01-13T12:59:49.237Z,76.82
2023-01-13T13:02:26.706Z,2.67
2023-01-13T13:05:14.350Z,3.22
2023-01-13T13:08:00.894Z,2.67
2023-01-13T13:10:35.078Z,3.40
2023-01-13T13:13:18.234Z,22.33
2023-01-13T13:15:47.312Z,38.60
2023-01-13T13:18:17.583Z,4.25
2023-01-13T13:21:05.069Z,30.52
2023-01-13T13:23:39.116Z,8.98
2023-01-13T13:26:29.923Z,9.13
2023-01-13T13:29:09.148Z,3.90
2023-01-13T13:31:54.973Z,2.78
2023-01-13T13:34:41.017Z,2.65
2023-01-13T13:37:28.865Z,2.95
2023-01-13T13:40:15.062Z,3.25
2023-01-13T13:43:03.506Z,48.08
2023-01-13T13:45:50.538Z,3.15
2023-01-13T13:48:30.758Z,2.85
2023-01-13T13:51:02.603Z,2.40
2023-01-13T13:53:44.063Z,5.97
2023-01-13T13:56:23.203Z,3.13
2023-01-13T13:58:52.455Z,2.63
2023-01-13T14:01:35.108Z,10.80
2023-01-13T14:04:22.756Z,2.63
2023-01-13T14:06:52.898Z,2.83
2023-01-13T14:09:21.082Z,1.40
2023-01-13T14:12:02.926Z,1.90
2023-01-13T14:14:30.472Z,1.75
2023-01-13T14:16:58.753Z,1.92
2023-01-13T14:19:33.397Z,1.60
2023-01-13T14:22:03.031Z,1.90
2023-01-13T14:24:31.377Z,14.10
2023-01-13T14:27:15.513Z,2.53
2023-01-13T14:29:43.155Z,2.40
2023-01-13T14:32:18.696Z,3.00
2023-01-13T14:34:46.446Z,3.97
2023-01-13T14:37:24.510Z,2.33
2023-01-13T14:39:52.032Z,2.30
2023-01-13T14:42:19.647Z,2.65
2023-01-13T14:44:51.404Z,2.97
2023-01-13T14:47:28.172Z,2.25
2023-01-13T14:50:19.389Z,2.55
2023-01-13T14:52:54.736Z,2.60
2023-01-13T14:55:28.886Z,2.88
2023-01-13T14:58:21.217Z,3.28
2023-01-13T15:00:50.082Z,3.50
2023-01-13T15:03:19.345Z,2.50
2023-01-13T15:05:49.508Z,2.22
2023-01-13T15:08:17.511Z,2.50
2023-01-13T15:10:51.425Z,2.30
2023-01-13T15:13:29.257Z,2.80
2023-01-13T15:15:58.613Z,3.28
2023-01-13T15:18:26.271Z,2.63
2023-01-13T15:20:53.722Z,2.80
2023-01-13T15:23:21.201Z,3.10
2023-01-13T15:25:49.026Z,3.10
2023-01-13T15:28:22.407Z,2.70
2023-01-13T15:30:50.966Z,3.28
2023-01-13T15:33:19.118Z,3.03
2023-01-13T15:35:54.939Z,2.70
2023-01-13T15:38:23.867Z,3.13
2023-01-13T15:40:52.667Z,3.00
2023-01-13T15:43:41.170Z,3.25
2023-01-13T15:46:34.971Z,2.88
2023-01-13T15:49:10.029Z,2.90
2023-01-13T15:51:38.950Z,3.47
2023-01-13T15:54:07.663Z,2.72
2023-01-13T15:56:36.934Z,3.22
2023-01-13T15:59:20.918Z,2.90
2023-01-13T16:01:48.376Z,3.15
2023-01-13T16:04:15.742Z,2.70
2023-01-13T16:06:43.144Z,2.40
2023-01-13T16:09:13.953Z,2.90
2023-01-13T16:11:41.506Z,2.50
2023-01-13T16:14:08.671Z,3.25
2023-01-13T16:16:37.207Z,3.10
2023-01-13T16:19:04.527Z,2.90
2023-01-13T16:21:31.740Z,2.70
2023-01-13T16:23:59.004Z,2.70
2023-01-13T16:26:29.352Z,3.30
2023-01-13T16:28:57.983Z,4.53
2023-01-13T16:31:30.798Z,3.88
2023-01-13T16:33:59.993Z,2.75
2023-01-13T16:36:28.916Z,3.80
2023-01-13T16:38:57.622Z,3.20
2023-01-13T16:41:25.176Z,4.10
2023-01-13T16:43:52.886Z,3.17
2023-01-13T16:46:23.151Z,3.97
2023-01-13T16:48:52.340Z,3.45
2023-01-13T16:51:20.573Z,3.40
2023-01-13T16:53:48.465Z,3.50
2023-01-13T16:56:21.307Z,3.60
2023-01-13T16:58:49.294Z,4.00
2023-01-13T17:01:22.642Z,4.07
2023-01-13T17:03:51.490Z,3.90
2023-01-13T17:06:22.327Z,3.65
2023-01-13T17:08:49.534Z,3.55
2023-01-13T17:11:17.028Z,6.88
2023-01-13T17:13:44.275Z,3.92
2023-01-13T17:16:20.776Z,4.03
2023-01-13T17:18:48.758Z,3.90
2023-01-13T17:21:17.300Z,4.07
2023-01-13T17:23:45.243Z,5.93
2023-01-13T17:26:32.933Z,6.05
2023-01-13T17:29:01.697Z,5.10
2023-01-13T17:31:29.964Z,5.25
2023-01-13T17:33:57.626Z,6.88
2023-01-13T17:36:25.854Z,7.22
2023-01-13T17:38:54.042Z,10.07
2023-01-13T17:41:21.611Z,6.93
2023-01-13T17:43:48.848Z,10.57
2023-01-13T17:46:19.959Z,7.45
2023-01-13T17:48:47.841Z,7.30
2023-01-13T17:51:16.723Z,7.22
2023-01-13T17:53:45.662Z,8.82
2023-01-13T17:56:14.847Z,9.57
2023-01-13T17:58:42.583Z,14.90
2023-01-13T18:01:11.387Z,15.82
2023-01-13T18:03:39.641Z,10.75
2023-01-13T18:06:10.946Z,76.72
2023-01-13T18:08:38.224Z,97.05
2023-01-13T18:11:05.623Z,24.30
2023-01-13T18:13:34.681Z,110.45
2023-01-13T18:16:16.178Z,18.67
2023-01-13T18:18:45.513Z,15.43
2023-01-13T18:21:45.337Z,10.38
2023-01-13T18:24:34.360Z,9.23
2023-01-13T18:27:22.077Z,18.92
2023-01-13T18:29:51.917Z,20.88
2023-01-13T18:32:19.510Z,11.43
2023-01-13T18:34:47.158Z,14.75
2023-01-13T18:37:16.702Z,11.18
2023-01-13T18:39:44.112Z,10.50
2023-01-13T18:42:30.536Z,13.77
2023-01-13T18:44:58.285Z,11.10
2023-01-13T18:47:29.877Z,21.30
2023-01-13T18:49:58.580Z,48.83
2023-01-13T18:52:27.046Z,24.92
2023-01-13T18:54:54.226Z,18.92
2023-01-13T18:57:22.381Z,14.93
2023-01-13T18:59:49.766Z,15.20
2023-01-13T19:02:19.723Z,20.65
2023-01-13T19:04:49.197Z,44.70
2023-01-13T19:07:23.888Z,15.45
2023-01-13T19:09:51.197Z,25.52
2023-01-13T19:12:26.409Z,42.40
2023-01-13T19:14:58.228Z,24.98
2023-01-13T19:17:27.534Z,21.77
2023-01-13T19:19:56.101Z,37.55
2023-01-13T19:22:30.467Z,31.88
2023-01-13T19:24:58.412Z,42.25
2023-01-13T19:27:29.884Z,30.27
2023-01-13T19:30:04.012Z,24.88
2023-01-13T19:32:33.118Z,20.92
2023-01-13T19:35:01.161Z,21.92
2023-01-13T19:37:30.607Z,15.60
2023-01-13T19:39:59.259Z,13.80
2023-01-13T19:42:45.484Z,13.70
2023-01-13T19:45:27.116Z,11.63
2023-01-13T19:47:59.092Z,14.53
2023-01-13T19:50:26.475Z,11.60
2023-01-13T19:52:53.800Z,12.13
2023-01-13T19:55:22.414Z,9.30
2023-01-13T19:57:49.884Z,17.38
2023-01-13T20:00:20.985Z,15.00
2023-01-13T20:02:52.199Z,15.13
2023-01-13T20:05:24.460Z,7.82
2023-01-13T20:07:52.162Z,7.03
2023-01-13T20:10:21.051Z,7.32
2023-01-13T20:12:48.416Z,7.35
2023-01-13T20:15:15.934Z,8.52
2023-01-13T20:17:43.130Z,6.72
2023-01-13T20:20:12.121Z,6.82
2023-01-13T20:22:40.513Z,7.13
2023-01-13T20:25:08.669Z,7.93
2023-01-13T20:27:36.710Z,8.15
2023-01-13T20:30:05.343Z,38.97
2023-01-13T20:32:33.200Z,110.47
2023-01-13T20:35:00.370Z,120.95
2023-01-13T20:37:27.885Z,51.42
2023-01-13T20:39:57.577Z,44.72
2023-01-13T20:42:30.806Z,30.65
2023-01-13T20:44:59.352Z,40.00
2023-01-13T20:47:27.708Z,28.52
2023-01-13T20:49:55.069Z,34.78
2023-01-13T20:52:22.332Z,26.33
2023-01-13T20:54:49.861Z,33.35
2023-01-13T20:57:17.188Z,18.42
2023-01-13T20:59:44.328Z,32.90
2023-01-13T21:02:13.856Z,39.28
2023-01-13T21:04:41.695Z,53.47
2023-01-13T21:07:09.639Z,73.80
2023-01-13T21:09:37.138Z,66.38
2023-01-13T21:12:23.199Z,64.70
2023-01-13T21:15:08.995Z,53.28
2023-01-13T21:17:55.304Z,58.05
2023-01-13T21:20:22.601Z,53.03
2023-01-13T21:22:50.071Z,19.38
2023-01-13T21:25:18.651Z,11.25
2023-01-13T21:27:45.806Z,11.85
2023-01-13T21:30:15.562Z,14.07
2023-01-13T21:32:44.527Z,15.85
2023-01-13T21:35:13.435Z,13.07
2023-01-13T21:37:42.523Z,10.43
2023-01-13T21:40:12.319Z,9.48
2023-01-13T21:42:58.008Z,9.50
2023-01-13T21:45:44.001Z,11.70
2023-01-13T21:48:11.244Z,27.85
2023-01-13T21:50:38.897Z,35.25
2023-01-13T21:53:08.096Z,28.05
2023-01-13T21:55:37.035Z,28.60
2023-01-13T21:58:12.923Z,32.75
2023-01-13T22:00:42.313Z,38.63
2023-01-13T22:03:11.413Z,14.95
2023-01-13T22:05:40.101Z,12.68
2023-01-13T22:08:08.132Z,21.42
2023-01-13T22:10:35.649Z,12.68
2023-01-13T22:13:23.719Z,12.55
2023-01-13T22:15:51.056Z,16.58
2023-01-13T22:18:18.525Z,18.05
2023-01-13T22:20:46.330Z,13.48
2023-01-13T22:23:13.760Z,10.77
2023-01-13T22:25:40.998Z,9.85
2023-01-13T22:28:09.589Z,12.02
2023-01-13T22:30:37.160Z,46.85
2023-01-13T22:33:04.431Z,61.47
2023-01-13T22:35:31.655Z,44.70
2023-01-13T22:37:58.975Z,22.05
2023-01-13T22:40:26.243Z,20.17
2023-01-13T22:42:53.624Z,20.80
2023-01-13T22:45:20.841Z,23.67
2023-01-13T22:47:49.791Z,29.73
2023-01-13T22:50:20.802Z,26.33
2023-01-13T22:52:48.288Z,17.67
2023-01-13T22:55:15.553Z,29.80
2023-01-13T22:57:47.983Z,17.20
2023-01-13T23:00:19.229Z,13.82
2023-01-13T23:02:46.959Z,13.88
2023-01-13T23:05:14.184Z,14.38
2023-01-13T23:07:41.432Z,12.77
2023-01-13T23:10:09.145Z,11.77
2023-01-13T23:12:36.584Z,12.13
2023-01-13T23:15:04.461Z,11.27
2023-01-13T23:17:31.944Z,10.60
2023-01-13T23:19:59.084Z,11.88
2023-01-13T23:22:26.374Z,9.93
2023-01-13T23:24:53.569Z,28.63
2023-01-13T23:27:20.825Z,52.10
2023-01-13T23:29:49.163Z,26.95
2023-01-13T23:32:16.486Z,15.50
2023-01-13T23:34:43.730Z,14.10
2023-01-13T23:37:10.914Z,11.48
2023-01-13T23:39:38.154Z,12.27
2023-01-13T23:42:05.636Z,10.65
2023-01-13T23:44:32.776Z,9.85
2023-01-13T23:47:00.114Z,9.30
2023-01-13T23:49:27.322Z,7.95
2023-01-13T23:51:54.790Z,9.30
2023-01-13T23:54:21.919Z,12.30
2023-01-13T23:56:52.745Z,10.32
2023-01-13T23:59:21.069Z,7.60
